Terminal Aerodrome Forecast
Issued by NWS Central Illinois

Home | Current Version | Previous Version | Text Only | Print | Product List | Glossary On
Versions: 1 2 3 4 5 6 7 8 9 10 11 12 13
000
FTUS43 KILX 030530
TAFPIA
TAF
KPIA 030530Z 0306/0406 20004KT P6SM SCT120
      TEMPO 0308/0312 4SM BR
     FM031800 22008KT P6SM BKN080
     FM040000 VRB05KT P6SM BKN080=

USA.gov is the U.S. government's official web portal to all federal, state and local government web resources and services.